createdAt,value
2022-10-01T00:01:11.126Z,96.10
2022-10-01T00:03:38.284Z,96.10
2022-10-01T00:06:13.398Z,96.10
2022-10-01T00:08:41.316Z,96.10
2022-10-01T00:11:13.117Z,96.20
2022-10-01T00:13:40.612Z,96.20
2022-10-01T00:16:08.747Z,96.20
2022-10-01T00:18:39.852Z,96.20
2022-10-01T00:21:12.724Z,96.20
2022-10-01T00:23:39.723Z,96.20
2022-10-01T00:26:20.951Z,96.20
2022-10-01T00:28:50.027Z,96.20
2022-10-01T00:31:16.902Z,96.20
2022-10-01T00:33:43.769Z,96.20
2022-10-01T00:36:10.927Z,96.20
2022-10-01T00:38:38.288Z,96.20
2022-10-01T00:41:05.314Z,96.20
2022-10-01T00:43:34.451Z,96.20
2022-10-01T00:46:15.389Z,96.20
2022-10-01T00:48:50.689Z,96.20
2022-10-01T00:51:17.507Z,96.20
2022-10-01T00:53:44.803Z,96.20
2022-10-01T00:56:11.653Z,96.20
2022-10-01T00:58:39.389Z,96.20
2022-10-01T01:01:06.370Z,96.20
2022-10-01T01:03:33.194Z,96.20
2022-10-01T01:06:00.222Z,96.10
2022-10-01T01:08:27.063Z,96.20
2022-10-01T01:11:05.090Z,96.10
2022-10-01T01:13:40.736Z,96.10
2022-10-01T01:16:12.846Z,96.10
2022-10-01T01:19:00.730Z,96.10
2022-10-01T01:21:42.531Z,96.00
2022-10-01T01:24:14.461Z,96.00
2022-10-01T01:26:44.231Z,95.90
2022-10-01T01:29:21.697Z,95.90
2022-10-01T01:31:48.722Z,95.90
2022-10-01T01:34:24.264Z,95.90
2022-10-01T01:36:55.163Z,95.90
2022-10-01T01:39:21.991Z,95.80
2022-10-01T01:41:51.308Z,95.80
2022-10-01T01:44:22.110Z,95.80
2022-10-01T01:46:49.451Z,95.80
2022-10-01T01:49:17.734Z,95.80
2022-10-01T01:52:04.471Z,95.80
2022-10-01T01:54:31.537Z,95.80
2022-10-01T01:56:58.525Z,95.70
2022-10-01T01:59:26.622Z,95.70
2022-10-01T02:01:53.675Z,95.70
2022-10-01T02:04:20.586Z,95.70
2022-10-01T02:06:55.998Z,95.80
2022-10-01T02:10:05.755Z,95.80
2022-10-01T02:12:57.174Z,95.80
2022-10-01T02:15:41.987Z,95.80
2022-10-01T02:18:08.854Z,95.80
2022-10-01T02:20:42.228Z,95.80
2022-10-01T02:23:11.565Z,95.90
2022-10-01T02:25:42.768Z,95.90
2022-10-01T02:28:15.708Z,95.90
2022-10-01T02:30:44.614Z,95.90
2022-10-01T02:33:13.911Z,95.90
2022-10-01T02:35:41.343Z,96.00
2022-10-01T02:38:08.806Z,96.00
2022-10-01T02:40:37.808Z,96.00
2022-10-01T02:43:14.245Z,96.00
2022-10-01T02:45:41.201Z,96.00
2022-10-01T02:48:09.974Z,96.00
2022-10-01T02:51:07.013Z,96.00
2022-10-01T02:53:40.768Z,96.00
2022-10-01T02:56:07.615Z,96.00
2022-10-01T02:58:36.312Z,96.00
2022-10-01T03:01:03.676Z,96.00
2022-10-01T03:03:32.444Z,95.90
2022-10-01T03:05:59.252Z,95.90
2022-10-01T03:08:25.995Z,95.90
2022-10-01T03:10:52.838Z,95.90
2022-10-01T03:13:19.813Z,95.90
2022-10-01T03:15:47.079Z,95.90
2022-10-01T03:18:13.933Z,95.90
2022-10-01T03:20:40.730Z,95.90
2022-10-01T03:23:07.523Z,95.90
2022-10-01T03:25:34.314Z,95.90
2022-10-01T03:28:01.357Z,96.00
2022-10-01T03:30:28.426Z,96.00
2022-10-01T03:32:55.227Z,95.90
2022-10-01T03:35:22.872Z,95.90
2022-10-01T03:37:49.742Z,95.90
2022-10-01T03:40:16.528Z,95.90
2022-10-01T03:42:43.315Z,95.90
2022-10-01T03:45:10.202Z,95.90
2022-10-01T03:47:37.063Z,95.90
2022-10-01T03:50:04.109Z,95.80
2022-10-01T03:52:30.905Z,95.80
2022-10-01T03:54:57.700Z,95.80
2022-10-01T03:57:24.455Z,95.70
2022-10-01T03:59:51.257Z,95.70
2022-10-01T04:02:18.157Z,95.60
2022-10-01T04:04:45.132Z,95.60
2022-10-01T04:07:11.921Z,95.50
2022-10-01T04:09:38.739Z,95.50
2022-10-01T04:12:05.955Z,95.40
2022-10-01T04:14:32.707Z,95.60
2022-10-01T04:17:00.413Z,95.30
2022-10-01T04:19:27.268Z,95.30
2022-10-01T04:21:54.112Z,95.30
2022-10-01T04:24:20.908Z,95.30
2022-10-01T04:26:47.745Z,95.30
2022-10-01T04:29:14.636Z,95.30
2022-10-01T04:31:41.533Z,95.30
2022-10-01T04:34:08.357Z,95.30
2022-10-01T04:36:35.135Z,95.30
2022-10-01T04:39:02.950Z,95.30
2022-10-01T04:41:31.282Z,95.30
2022-10-01T04:43:59.715Z,95.30
2022-10-01T04:46:27.759Z,95.20
2022-10-01T04:48:54.657Z,95.20
2022-10-01T04:51:21.435Z,95.20
2022-10-01T04:53:48.295Z,95.20
2022-10-01T04:56:15.132Z,95.30
2022-10-01T04:58:41.912Z,95.20
2022-10-01T05:01:08.839Z,95.30
2022-10-01T05:03:35.681Z,95.30
2022-10-01T05:06:02.437Z,95.30
2022-10-01T05:08:29.629Z,95.30
2022-10-01T05:10:58.604Z,95.40
2022-10-01T05:13:31.842Z,95.40
2022-10-01T05:15:59.132Z,95.40
2022-10-01T05:18:26.149Z,95.40
2022-10-01T05:20:52.916Z,95.40
2022-10-01T05:23:19.774Z,95.40
2022-10-01T05:25:47.113Z,95.50
2022-10-01T05:28:17.214Z,95.50
2022-10-01T05:30:48.110Z,95.70
2022-10-01T05:33:15.073Z,95.50
2022-10-01T05:35:41.911Z,95.50
2022-10-01T05:38:08.741Z,95.70
2022-10-01T05:40:35.553Z,95.50
2022-10-01T05:43:04.476Z,95.60
2022-10-01T05:45:31.633Z,95.60
2022-10-01T05:48:03.178Z,95.60
2022-10-01T05:50:33.761Z,95.60
2022-10-01T05:53:01.151Z,95.70
2022-10-01T05:55:31.884Z,95.70
2022-10-01T05:58:00.239Z,95.70
2022-10-01T06:00:30.242Z,95.70
2022-10-01T06:02:58.203Z,95.70
2022-10-01T06:05:25.236Z,95.70
2022-10-01T06:07:53.539Z,95.70
2022-10-01T06:10:21.112Z,95.70
2022-10-01T06:12:48.533Z,95.70
2022-10-01T06:15:15.611Z,95.70
2022-10-01T06:17:45.353Z,95.70
2022-10-01T06:20:13.380Z,95.70
2022-10-01T06:22:41.031Z,95.70
2022-10-01T06:25:08.229Z,95.70
2022-10-01T06:27:35.112Z,95.70
2022-10-01T06:30:02.198Z,95.60
2022-10-01T06:32:34.088Z,95.60
2022-10-01T06:35:01.961Z,95.60
2022-10-01T06:37:28.848Z,95.60
2022-10-01T06:39:55.708Z,95.60
2022-10-01T06:42:22.560Z,95.60
2022-10-01T06:44:49.364Z,95.60
2022-10-01T06:47:16.252Z,95.60
2022-10-01T06:49:47.327Z,95.70
2022-10-01T06:52:33.490Z,95.60
2022-10-01T06:55:01.478Z,95.60
2022-10-01T06:57:28.754Z,95.60
2022-10-01T06:59:55.962Z,95.60
2022-10-01T07:02:28.674Z,95.70
2022-10-01T07:04:59.367Z,95.70
2022-10-01T07:07:31.046Z,95.60
2022-10-01T07:09:58.882Z,95.30
2022-10-01T07:12:26.048Z,95.20
2022-10-01T07:14:53.225Z,95.00
2022-10-01T07:17:20.708Z,94.80
2022-10-01T07:19:47.541Z,94.70
2022-10-01T07:22:14.365Z,94.60
2022-10-01T07:24:41.309Z,94.60
2022-10-01T07:27:08.197Z,94.60
2022-10-01T07:29:35.035Z,94.60
2022-10-01T07:32:02.159Z,94.60
2022-10-01T07:34:31.074Z,94.50
2022-10-01T07:36:57.958Z,94.60
2022-10-01T07:39:24.836Z,94.50
2022-10-01T07:41:51.889Z,94.50
2022-10-01T07:44:19.803Z,94.50
2022-10-01T07:46:47.209Z,94.40
2022-10-01T07:49:15.071Z,94.40
2022-10-01T07:51:43.937Z,94.40
2022-10-01T07:54:10.845Z,94.30
2022-10-01T07:56:37.931Z,94.30
2022-10-01T07:59:04.865Z,94.30
2022-10-01T08:01:32.546Z,94.10
2022-10-01T08:03:59.780Z,94.00
2022-10-01T08:06:26.936Z,93.90
2022-10-01T08:08:53.724Z,93.80
2022-10-01T08:11:24.680Z,93.70
2022-10-01T08:13:51.549Z,93.60
2022-10-01T08:16:18.721Z,93.50
2022-10-01T08:18:45.781Z,93.40
2022-10-01T08:21:14.204Z,93.30
2022-10-01T08:23:41.177Z,93.30
2022-10-01T08:26:08.542Z,93.20
2022-10-01T08:28:35.607Z,93.00
2022-10-01T08:31:07.538Z,93.00
2022-10-01T08:33:35.161Z,92.80
2022-10-01T08:36:02.905Z,92.80
2022-10-01T08:38:29.778Z,92.80
2022-10-01T08:40:56.637Z,92.60
2022-10-01T08:43:34.291Z,92.40
2022-10-01T08:46:15.044Z,92.20
2022-10-01T08:48:47.970Z,92.10
2022-10-01T08:51:33.284Z,92.00
2022-10-01T08:54:04.651Z,91.80
2022-10-01T08:56:34.187Z,91.70
2022-10-01T08:59:04.857Z,91.60
2022-10-01T09:01:32.037Z,91.50
2022-10-01T09:03:59.519Z,91.50
2022-10-01T09:06:26.808Z,91.30
2022-10-01T09:09:09.001Z,91.20
2022-10-01T09:12:01.122Z,90.80
2022-10-01T09:15:00.276Z,90.60
2022-10-01T09:17:53.892Z,90.60
2022-10-01T09:20:25.462Z,90.50
2022-10-01T09:23:15.355Z,90.70
2022-10-01T09:25:42.520Z,90.30
2022-10-01T09:28:15.470Z,90.00
2022-10-01T09:30:46.195Z,89.30
2022-10-01T09:33:22.789Z,88.70
2022-10-01T09:36:03.153Z,87.80
2022-10-01T09:38:42.702Z,87.30
2022-10-01T09:41:10.618Z,87.50
2022-10-01T09:43:38.937Z,86.90
2022-10-01T09:46:13.308Z,86.40
2022-10-01T09:48:56.886Z,86.20
2022-10-01T09:51:34.831Z,85.80
2022-10-01T09:54:22.489Z,85.20
2022-10-01T09:57:17.082Z,85.10
2022-10-01T10:00:11.690Z,85.20
2022-10-01T10:02:48.484Z,85.60
2022-10-01T10:05:20.659Z,85.30
2022-10-01T10:08:14.590Z,85.10
2022-10-01T10:10:49.069Z,84.60
2022-10-01T10:13:48.715Z,84.80
2022-10-01T10:16:16.657Z,84.30
2022-10-01T10:18:48.694Z,84.50
2022-10-01T10:21:16.632Z,84.30
2022-10-01T10:24:03.937Z,84.10
2022-10-01T10:26:36.174Z,83.70
2022-10-01T10:29:03.398Z,83.60
2022-10-01T10:31:42.593Z,83.20
2022-10-01T10:34:21.942Z,82.40
2022-10-01T10:36:48.762Z,82.30
2022-10-01T10:39:36.656Z,82.00
2022-10-01T10:42:04.105Z,81.10
2022-10-01T10:44:39.561Z,81.00
2022-10-01T10:47:16.738Z,80.10
2022-10-01T10:49:46.319Z,79.00
2022-10-01T10:52:36.834Z,78.80
2022-10-01T10:55:26.943Z,77.80
2022-10-01T10:57:57.478Z,77.10
2022-10-01T11:00:25.752Z,77.20
2022-10-01T11:03:01.742Z,76.70
2022-10-01T11:05:31.965Z,76.30
2022-10-01T11:08:00.929Z,76.30
2022-10-01T11:11:02.665Z,76.50
2022-10-01T11:13:41.322Z,76.20
2022-10-01T11:16:20.469Z,76.00
2022-10-01T11:19:01.345Z,76.20
2022-10-01T11:21:37.193Z,75.80
2022-10-01T11:24:15.942Z,75.80
2022-10-01T11:26:57.878Z,74.80
2022-10-01T11:29:51.460Z,74.90
2022-10-01T11:32:24.268Z,74.90
2022-10-01T11:35:28.534Z,75.10
2022-10-01T11:37:57.356Z,75.00
2022-10-01T11:40:35.967Z,75.40
2022-10-01T11:43:12.962Z,74.90
2022-10-01T11:45:45.908Z,75.10
2022-10-01T11:48:52.339Z,75.20
2022-10-01T11:51:25.385Z,75.20
2022-10-01T11:53:55.958Z,74.90
2022-10-01T11:56:46.087Z,74.70
2022-10-01T11:59:29.569Z,74.70
2022-10-01T12:02:15.421Z,74.90
2022-10-01T12:04:50.101Z,75.20
2022-10-01T12:07:44.014Z,75.30
2022-10-01T12:10:37.256Z,75.10
2022-10-01T12:13:16.646Z,75.30
2022-10-01T12:15:51.925Z,75.30
2022-10-01T12:18:23.119Z,75.30
2022-10-01T12:20:53.969Z,75.40
2022-10-01T12:23:22.928Z,74.80
2022-10-01T12:26:35.161Z,74.30
2022-10-01T12:29:17.133Z,73.80
2022-10-01T12:31:51.041Z,73.50
2022-10-01T12:34:45.870Z,73.50
2022-10-01T12:37:58.394Z,73.10
2022-10-01T12:40:53.908Z,73.30
2022-10-01T12:43:37.232Z,73.60
2022-10-01T12:46:12.955Z,73.70
2022-10-01T12:49:11.178Z,73.30
2022-10-01T12:51:52.987Z,72.90
2022-10-01T12:54:30.973Z,72.40
2022-10-01T12:57:17.277Z,71.30
2022-10-01T12:59:59.275Z,70.50
2022-10-01T13:02:49.338Z,69.90
2022-10-01T13:05:20.194Z,69.30
2022-10-01T13:07:53.003Z,69.10
2022-10-01T13:10:43.527Z,68.30
2022-10-01T13:13:27.335Z,68.30
2022-10-01T13:16:15.514Z,68.50
2022-10-01T13:18:57.636Z,68.90
2022-10-01T13:21:32.370Z,69.30
2022-10-01T13:24:09.746Z,68.90
2022-10-01T13:26:58.396Z,68.90
2022-10-01T13:29:25.472Z,68.90
2022-10-01T13:31:57.343Z,69.20
2022-10-01T13:34:26.217Z,69.10
2022-10-01T13:36:53.266Z,69.10
2022-10-01T13:39:22.253Z,69.10
2022-10-01T13:41:50.578Z,69.00
2022-10-01T13:44:27.750Z,68.70
2022-10-01T13:47:06.074Z,68.60
2022-10-01T13:49:34.220Z,68.30
2022-10-01T13:52:02.952Z,68.40
2022-10-01T13:54:47.391Z,68.30
2022-10-01T13:57:25.968Z,67.80
2022-10-01T14:00:23.130Z,67.60
2022-10-01T14:03:06.531Z,68.00
2022-10-01T14:05:42.867Z,68.00
2022-10-01T14:08:16.812Z,68.20
2022-10-01T14:11:15.339Z,68.10
2022-10-01T14:14:06.033Z,67.70
2022-10-01T14:16:45.473Z,67.80
2022-10-01T14:19:19.891Z,67.80
2022-10-01T14:22:12.076Z,68.30
2022-10-01T14:24:45.179Z,67.60
2022-10-01T14:27:36.407Z,68.00
2022-10-01T14:30:06.822Z,67.80
2022-10-01T14:32:52.557Z,66.80
2022-10-01T14:35:20.665Z,65.60
2022-10-01T14:37:47.529Z,64.20
2022-10-01T14:40:17.805Z,63.20
2022-10-01T14:42:45.104Z,62.80
2022-10-01T14:45:18.986Z,62.80
2022-10-01T14:47:48.794Z,61.90
2022-10-01T14:50:20.323Z,61.60
2022-10-01T14:52:48.804Z,60.60
2022-10-01T14:55:15.727Z,60.20
2022-10-01T14:57:49.347Z,60.10
2022-10-01T15:00:20.803Z,60.50
2022-10-01T15:02:52.291Z,60.70
2022-10-01T15:05:30.311Z,61.00
2022-10-01T15:07:57.185Z,61.10
2022-10-01T15:10:27.391Z,61.20
2022-10-01T15:12:55.036Z,60.90
2022-10-01T15:15:24.773Z,61.50
2022-10-01T15:17:51.607Z,61.40
2022-10-01T15:20:18.506Z,61.00
2022-10-01T15:22:46.446Z,60.50
2022-10-01T15:25:27.007Z,60.60
2022-10-01T15:27:54.348Z,60.50
2022-10-01T15:30:21.990Z,60.70
2022-10-01T15:32:48.858Z,60.20
2022-10-01T15:35:19.391Z,60.60
2022-10-01T15:37:50.108Z,60.80
2022-10-01T15:40:21.484Z,60.80
2022-10-01T15:43:06.884Z,60.00
2022-10-01T15:45:34.292Z,59.80
2022-10-01T15:48:01.285Z,60.90
2022-10-01T15:50:32.683Z,61.10
2022-10-01T15:53:06.346Z,60.70
2022-10-01T15:55:42.224Z,60.40
2022-10-01T15:58:26.989Z,59.60
2022-10-01T16:01:06.735Z,58.50
2022-10-01T16:03:41.940Z,58.00
2022-10-01T16:06:29.287Z,57.00
2022-10-01T16:09:00.836Z,56.20
2022-10-01T16:11:32.113Z,56.00
2022-10-01T16:14:22.483Z,56.10
2022-10-01T16:16:50.747Z,55.90
2022-10-01T16:19:30.920Z,55.70
2022-10-01T16:22:22.784Z,55.40
2022-10-01T16:24:54.962Z,56.10
2022-10-01T16:27:24.057Z,56.50
2022-10-01T16:30:06.943Z,56.40
2022-10-01T16:32:33.927Z,56.20
2022-10-01T16:35:23.876Z,56.30
2022-10-01T16:37:51.961Z,55.80
2022-10-01T16:40:19.547Z,56.10
2022-10-01T16:42:46.420Z,56.20
2022-10-01T16:45:22.533Z,56.40
2022-10-01T16:47:49.411Z,56.90
2022-10-01T16:50:17.743Z,58.00
2022-10-01T16:52:44.583Z,59.20
2022-10-01T16:55:22.554Z,60.30
2022-10-01T16:57:50.115Z,61.20
2022-10-01T17:00:18.246Z,62.20
2022-10-01T17:02:45.255Z,62.90
2022-10-01T17:05:26.361Z,63.50
2022-10-01T17:07:54.067Z,64.00
2022-10-01T17:10:25.024Z,64.60
2022-10-01T17:12:51.872Z,65.10
2022-10-01T17:15:23.209Z,65.40
2022-10-01T17:17:50.142Z,65.70
2022-10-01T17:20:17.077Z,65.90
2022-10-01T17:22:43.997Z,66.00
2022-10-01T17:25:17.833Z,66.00
2022-10-01T17:27:44.833Z,65.80
2022-10-01T17:30:12.060Z,66.00
2022-10-01T17:32:40.202Z,66.00
2022-10-01T17:35:07.714Z,66.30
2022-10-01T17:37:34.750Z,66.40
2022-10-01T17:40:01.871Z,66.70
2022-10-01T17:42:28.931Z,66.80
2022-10-01T17:44:55.778Z,67.10
2022-10-01T17:47:22.732Z,67.30
2022-10-01T17:49:49.564Z,67.50
2022-10-01T17:52:16.675Z,67.80
2022-10-01T17:54:43.517Z,68.00
2022-10-01T17:57:10.888Z,68.40
2022-10-01T17:59:38.293Z,68.60
2022-10-01T18:02:29.614Z,68.90
2022-10-01T18:04:55.407Z,69.00
2022-10-01T18:07:22.381Z,69.20
2022-10-01T18:09:49.313Z,69.30
2022-10-01T18:12:16.179Z,69.30
2022-10-01T18:14:43.229Z,69.30
2022-10-01T18:17:10.160Z,69.30
2022-10-01T18:19:53.668Z,69.20
2022-10-01T18:22:20.962Z,69.30
2022-10-01T18:24:47.777Z,69.60
2022-10-01T18:27:14.926Z,69.80
2022-10-01T18:29:41.717Z,70.00
2022-10-01T18:32:17.769Z,70.20
2022-10-01T18:34:52.964Z,70.20
2022-10-01T18:37:30.796Z,70.40
2022-10-01T18:40:03.878Z,70.60
2022-10-01T18:42:54.704Z,70.90
2022-10-01T18:45:44.797Z,71.10
2022-10-01T18:48:38.479Z,71.40
2022-10-01T18:51:15.077Z,71.50
2022-10-01T18:53:52.026Z,71.80
2022-10-01T18:56:36.590Z,71.90
2022-10-01T18:59:33.279Z,72.10
2022-10-01T19:02:27.424Z,72.30
2022-10-01T19:05:29.554Z,72.60
2022-10-01T19:08:08.602Z,72.70
2022-10-01T19:10:52.795Z,72.90
2022-10-01T19:13:24.658Z,73.20
2022-10-01T19:16:05.961Z,73.40
2022-10-01T19:18:44.916Z,73.50
2022-10-01T19:21:18.875Z,73.50
2022-10-01T19:24:04.285Z,73.70
2022-10-01T19:26:57.994Z,73.90
2022-10-01T19:29:31.516Z,74.00
2022-10-01T19:32:02.316Z,74.10
2022-10-01T19:34:57.851Z,74.40
2022-10-01T19:37:33.813Z,74.50
2022-10-01T19:40:05.170Z,74.60
2022-10-01T19:42:35.359Z,74.90
2022-10-01T19:45:12.032Z,75.00
2022-10-01T19:47:40.404Z,75.00
2022-10-01T19:50:24.125Z,75.20
2022-10-01T19:52:51.693Z,75.30
2022-10-01T19:55:20.287Z,75.50
2022-10-01T19:57:47.340Z,75.70
2022-10-01T20:00:20.013Z,75.80
2022-10-01T20:03:13.186Z,75.90
2022-10-01T20:05:58.465Z,76.00
2022-10-01T20:08:36.253Z,76.10
2022-10-01T20:11:06.415Z,76.20
2022-10-01T20:13:36.792Z,76.30
2022-10-01T20:16:22.437Z,76.50
2022-10-01T20:18:57.818Z,76.80
2022-10-01T20:21:38.508Z,76.80
2022-10-01T20:24:43.361Z,77.00
2022-10-01T20:27:16.450Z,77.30
2022-10-01T20:30:04.917Z,77.50
2022-10-01T20:32:52.577Z,77.70
2022-10-01T20:35:22.978Z,77.70
2022-10-01T20:38:43.888Z,78.10
2022-10-01T20:41:14.951Z,78.40
2022-10-01T20:43:55.919Z,78.50
2022-10-01T20:46:40.968Z,79.10
2022-10-01T20:49:32.970Z,78.70
2022-10-01T20:52:37.830Z,78.70
2022-10-01T20:55:29.117Z,78.80
2022-10-01T20:58:02.317Z,78.80
2022-10-01T21:00:31.047Z,78.90
2022-10-01T21:03:19.241Z,78.90
2022-10-01T21:05:53.590Z,79.10
2022-10-01T21:08:41.098Z,79.20
2022-10-01T21:11:14.587Z,79.30
2022-10-01T21:13:55.670Z,79.30
2022-10-01T21:16:37.284Z,79.50
2022-10-01T21:19:38.922Z,79.40
2022-10-01T21:22:24.897Z,79.50
2022-10-01T21:25:28.586Z,79.70
2022-10-01T21:28:04.067Z,79.90
2022-10-01T21:30:49.738Z,79.90
2022-10-01T21:33:25.033Z,80.10
2022-10-01T21:35:53.112Z,80.20
2022-10-01T21:38:32.466Z,80.30
2022-10-01T21:41:26.105Z,80.30
2022-10-01T21:44:15.676Z,80.50
2022-10-01T21:46:50.250Z,80.30
2022-10-01T21:49:24.601Z,80.10
2022-10-01T21:51:55.501Z,80.10
2022-10-01T21:54:44.971Z,80.10
2022-10-01T21:57:36.761Z,80.20
2022-10-01T22:00:26.207Z,80.30
2022-10-01T22:03:14.014Z,80.50
2022-10-01T22:06:11.814Z,80.60
2022-10-01T22:08:55.094Z,80.60
2022-10-01T22:12:03.128Z,80.40
2022-10-01T22:14:31.123Z,80.40
2022-10-01T22:17:01.303Z,80.20
2022-10-01T22:19:34.695Z,80.20
2022-10-01T22:22:07.553Z,80.40
2022-10-01T22:24:39.432Z,80.60
2022-10-01T22:27:15.998Z,80.70
2022-10-01T22:29:46.504Z,80.80
2022-10-01T22:32:13.946Z,81.10
2022-10-01T22:34:52.517Z,81.40
2022-10-01T22:37:44.129Z,81.60
2022-10-01T22:40:21.484Z,81.80
2022-10-01T22:42:55.406Z,82.20
2022-10-01T22:45:22.234Z,82.40
2022-10-01T22:47:56.025Z,82.70
2022-10-01T22:50:32.090Z,83.20
2022-10-01T22:53:08.825Z,83.40
2022-10-01T22:55:47.842Z,83.80
2022-10-01T22:58:35.372Z,84.10
2022-10-01T23:01:21.008Z,84.50
2022-10-01T23:03:55.658Z,84.80
2022-10-01T23:06:35.994Z,85.00
2022-10-01T23:09:08.790Z,85.40
2022-10-01T23:11:54.145Z,85.70
2022-10-01T23:14:30.120Z,85.80
2022-10-01T23:17:04.702Z,86.20
2022-10-01T23:19:37.388Z,86.40
2022-10-01T23:22:07.506Z,86.50
2022-10-01T23:25:02.795Z,86.90
2022-10-01T23:27:32.479Z,87.20
2022-10-01T23:30:04.509Z,87.20
2022-10-01T23:32:46.777Z,87.60
2022-10-01T23:35:14.632Z,87.90
2022-10-01T23:37:58.033Z,87.90
2022-10-01T23:40:31.057Z,88.10
2022-10-01T23:43:16.478Z,88.30
2022-10-01T23:45:46.618Z,88.40
2022-10-01T23:48:37.086Z,88.50
2022-10-01T23:51:14.023Z,88.70
2022-10-01T23:54:07.263Z,88.80
2022-10-01T23:56:48.572Z,89.10
2022-10-01T23:59:28.499Z,89.10
